createdAt,value
2022-10-06T00:02:23.093Z,3.87
2022-10-06T00:04:49.533Z,3.63
2022-10-06T00:07:16.823Z,3.60
2022-10-06T00:09:43.149Z,3.40
2022-10-06T00:12:10.673Z,4.27
2022-10-06T00:14:37.538Z,3.70
2022-10-06T00:17:04.515Z,3.50
2022-10-06T00:19:31.288Z,3.27
2022-10-06T00:21:57.793Z,3.43
2022-10-06T00:24:24.139Z,3.30
2022-10-06T00:26:50.567Z,3.43
2022-10-06T00:29:16.872Z,3.70
2022-10-06T00:31:43.649Z,3.47
2022-10-06T00:34:10.371Z,3.30
2022-10-06T00:36:37.183Z,3.23
2022-10-06T00:39:03.621Z,3.50
2022-10-06T00:41:30.010Z,3.57
2022-10-06T00:43:57.825Z,3.80
2022-10-06T00:46:47.597Z,3.30
2022-10-06T00:49:22.744Z,3.73
2022-10-06T00:51:57.591Z,2.70
2022-10-06T00:54:25.163Z,3.50
2022-10-06T00:56:52.335Z,3.87
2022-10-06T00:59:19.013Z,3.90
2022-10-06T01:02:18.857Z,2.63
2022-10-06T01:04:50.197Z,2.77
2022-10-06T01:07:20.188Z,3.10
2022-10-06T01:09:47.204Z,2.93
2022-10-06T01:12:14.500Z,3.40
2022-10-06T01:14:41.906Z,3.07
2022-10-06T01:17:20.624Z,3.07
2022-10-06T01:20:00.095Z,2.90
2022-10-06T01:22:33.555Z,3.07
2022-10-06T01:25:00.186Z,3.13
2022-10-06T01:27:29.716Z,3.03
2022-10-06T01:29:57.383Z,3.50
2022-10-06T01:32:26.777Z,3.30
2022-10-06T01:34:53.485Z,2.90
2022-10-06T01:37:19.780Z,2.97
2022-10-06T01:39:46.077Z,2.87
2022-10-06T01:42:12.352Z,3.03
2022-10-06T01:44:38.758Z,2.80
2022-10-06T01:47:06.130Z,2.70
2022-10-06T01:49:32.479Z,3.10
2022-10-06T01:51:58.771Z,3.40
2022-10-06T01:54:25.157Z,3.00
2022-10-06T01:56:52.552Z,3.33
2022-10-06T01:59:19.041Z,2.70
2022-10-06T02:01:45.504Z,3.10
2022-10-06T02:04:12.032Z,3.33
2022-10-06T02:06:38.566Z,3.93
2022-10-06T02:09:04.991Z,4.10
2022-10-06T02:11:31.348Z,3.47
2022-10-06T02:13:57.697Z,3.20
2022-10-06T02:16:24.082Z,3.80
2022-10-06T02:18:50.488Z,3.67
2022-10-06T02:21:19.375Z,4.00
2022-10-06T02:23:46.081Z,4.00
2022-10-06T02:26:13.345Z,4.83
2022-10-06T02:28:39.702Z,3.70
2022-10-06T02:31:08.663Z,4.47
2022-10-06T02:33:36.080Z,4.63
2022-10-06T02:36:04.500Z,3.90
2022-10-06T02:38:32.333Z,4.87
2022-10-06T02:41:00.015Z,4.40
2022-10-06T02:43:29.554Z,4.93
2022-10-06T02:45:57.587Z,4.77
2022-10-06T02:48:25.178Z,4.90
2022-10-06T02:50:58.702Z,5.10
2022-10-06T02:53:26.058Z,4.87
2022-10-06T02:55:59.008Z,5.43
2022-10-06T02:58:25.652Z,5.40
2022-10-06T03:00:52.360Z,6.20
2022-10-06T03:03:18.804Z,5.80
2022-10-06T03:05:45.118Z,5.30
2022-10-06T03:08:11.414Z,4.93
2022-10-06T03:10:37.738Z,5.07
2022-10-06T03:13:04.024Z,6.20
2022-10-06T03:15:30.295Z,4.60
2022-10-06T03:17:56.584Z,5.00
2022-10-06T03:20:22.928Z,5.03
2022-10-06T03:22:49.282Z,5.30
2022-10-06T03:25:15.617Z,5.50
2022-10-06T03:27:41.941Z,5.27
2022-10-06T03:30:09.210Z,5.70
2022-10-06T03:32:35.834Z,5.73
2022-10-06T03:35:02.139Z,4.97
2022-10-06T03:37:28.569Z,5.93
2022-10-06T03:39:54.894Z,5.10
2022-10-06T03:42:21.177Z,4.90
2022-10-06T03:44:47.680Z,5.33
2022-10-06T03:47:17.287Z,5.90
2022-10-06T03:49:43.973Z,6.00
2022-10-06T03:52:10.260Z,5.30
2022-10-06T03:54:36.791Z,4.63
2022-10-06T03:57:04.186Z,4.43
2022-10-06T03:59:34.017Z,5.03
2022-10-06T04:02:00.336Z,4.53
2022-10-06T04:04:27.325Z,5.07
2022-10-06T04:06:53.618Z,5.43
2022-10-06T04:09:19.909Z,4.60
2022-10-06T04:11:46.403Z,5.03
2022-10-06T04:14:15.128Z,5.07
2022-10-06T04:16:47.075Z,4.83
2022-10-06T04:19:14.793Z,4.40
2022-10-06T04:21:43.244Z,4.60
2022-10-06T04:24:11.016Z,5.17
2022-10-06T04:26:40.234Z,5.70
2022-10-06T04:29:07.029Z,6.03
2022-10-06T04:31:41.253Z,5.40
2022-10-06T04:34:10.235Z,5.27
2022-10-06T04:36:39.962Z,5.27
2022-10-06T04:39:07.926Z,5.10
2022-10-06T04:41:39.288Z,5.60
2022-10-06T04:44:06.679Z,5.03
2022-10-06T04:46:49.207Z,5.47
2022-10-06T04:49:20.071Z,5.40
2022-10-06T04:51:49.276Z,6.07
2022-10-06T04:54:16.125Z,5.03
2022-10-06T04:56:42.587Z,5.00
2022-10-06T04:59:08.948Z,5.57
2022-10-06T05:01:37.183Z,5.27
2022-10-06T05:04:05.942Z,6.07
2022-10-06T05:06:34.726Z,5.40
2022-10-06T05:09:04.140Z,6.00
2022-10-06T05:11:31.727Z,5.93
2022-10-06T05:13:58.575Z,5.07
2022-10-06T05:16:27.441Z,5.67
2022-10-06T05:18:54.268Z,6.20
2022-10-06T05:21:22.732Z,5.90
2022-10-06T05:23:49.088Z,6.70
2022-10-06T05:26:19.818Z,5.80
2022-10-06T05:28:46.628Z,6.23
2022-10-06T05:31:16.680Z,5.70
2022-10-06T05:33:43.102Z,5.97
2022-10-06T05:36:12.006Z,5.83
2022-10-06T05:38:39.280Z,6.03
2022-10-06T05:41:05.660Z,5.87
2022-10-06T05:43:32.567Z,5.70
2022-10-06T05:46:02.070Z,6.07
2022-10-06T05:48:32.183Z,6.23
2022-10-06T05:51:01.181Z,5.80
2022-10-06T05:53:34.022Z,6.70
2022-10-06T05:56:07.938Z,6.73
2022-10-06T05:58:35.912Z,5.77
2022-10-06T06:01:31.415Z,6.47
2022-10-06T06:04:03.284Z,6.60
2022-10-06T06:06:34.231Z,6.67
2022-10-06T06:09:08.449Z,5.50
2022-10-06T06:11:37.037Z,6.53
2022-10-06T06:14:06.177Z,6.57
2022-10-06T06:16:33.056Z,7.50
2022-10-06T06:19:00.464Z,8.87
2022-10-06T06:21:27.537Z,8.70
2022-10-06T06:23:54.178Z,8.90
2022-10-06T06:26:25.569Z,8.03
2022-10-06T06:28:53.573Z,8.60
2022-10-06T06:31:27.094Z,7.90
2022-10-06T06:33:56.385Z,8.20
2022-10-06T06:36:28.312Z,8.20
2022-10-06T06:38:56.735Z,7.60
2022-10-06T06:41:28.898Z,8.17
2022-10-06T06:43:56.034Z,8.03
2022-10-06T06:46:25.374Z,6.57
2022-10-06T06:48:52.776Z,6.87
2022-10-06T06:51:22.796Z,6.70
2022-10-06T06:53:52.660Z,7.10
2022-10-06T06:56:21.481Z,6.23
2022-10-06T06:58:47.916Z,6.00
2022-10-06T07:01:19.453Z,5.90
2022-10-06T07:03:57.695Z,5.00
2022-10-06T07:06:28.592Z,5.10
2022-10-06T07:08:57.490Z,5.10
2022-10-06T07:11:32.868Z,5.50
2022-10-06T07:14:01.556Z,5.30
2022-10-06T07:16:48.666Z,5.20
2022-10-06T07:19:35.606Z,5.63
2022-10-06T07:22:31.066Z,4.90
2022-10-06T07:25:11.276Z,5.23
2022-10-06T07:27:42.029Z,4.80
2022-10-06T07:30:11.159Z,5.67
2022-10-06T07:32:37.734Z,5.70
2022-10-06T07:35:06.799Z,5.60
2022-10-06T07:37:35.061Z,5.00
2022-10-06T07:40:01.848Z,5.80
2022-10-06T07:42:28.165Z,5.07
2022-10-06T07:45:13.228Z,5.30
2022-10-06T07:47:39.512Z,5.27
2022-10-06T07:50:07.036Z,6.43
2022-10-06T07:52:38.957Z,4.90
2022-10-06T07:55:05.941Z,5.97
2022-10-06T07:57:34.977Z,5.23
2022-10-06T08:00:05.259Z,5.70
2022-10-06T08:02:34.819Z,6.23
2022-10-06T08:05:04.726Z,5.83
2022-10-06T08:07:31.151Z,5.53
2022-10-06T08:09:57.538Z,4.70
2022-10-06T08:12:32.804Z,5.77
2022-10-06T08:15:07.081Z,5.23
2022-10-06T08:17:36.340Z,5.23
2022-10-06T08:20:04.874Z,5.80
2022-10-06T08:22:31.269Z,4.70
2022-10-06T08:25:05.699Z,5.70
2022-10-06T08:27:34.726Z,6.10
2022-10-06T08:30:01.162Z,5.83
2022-10-06T08:32:27.596Z,5.67
2022-10-06T08:34:54.277Z,6.00
2022-10-06T08:37:23.699Z,6.50
2022-10-06T08:39:51.361Z,7.70
2022-10-06T08:42:32.038Z,7.40
2022-10-06T08:45:24.330Z,8.67
2022-10-06T08:48:00.426Z,7.60
2022-10-06T08:50:29.244Z,8.00
2022-10-06T08:53:23.600Z,7.00
2022-10-06T08:56:01.508Z,6.73
2022-10-06T08:58:46.048Z,6.83
2022-10-06T09:01:18.566Z,7.10
2022-10-06T09:03:48.778Z,6.93
2022-10-06T09:06:27.285Z,6.73
2022-10-06T09:08:58.616Z,7.13
2022-10-06T09:11:51.682Z,6.63
2022-10-06T09:14:37.391Z,7.03
2022-10-06T09:17:10.566Z,7.60
2022-10-06T09:19:42.233Z,6.50
2022-10-06T09:22:30.919Z,6.37
2022-10-06T09:25:02.905Z,8.50
2022-10-06T09:27:33.821Z,5.80
2022-10-06T09:30:01.980Z,5.13
2022-10-06T09:32:30.636Z,5.53
2022-10-06T09:35:02.572Z,5.17
2022-10-06T09:37:28.985Z,5.60
2022-10-06T09:39:55.841Z,5.20
2022-10-06T09:42:35.556Z,5.70
2022-10-06T09:45:24.934Z,5.00
2022-10-06T09:47:51.280Z,5.13
2022-10-06T09:50:21.478Z,5.10
2022-10-06T09:53:09.169Z,5.07
2022-10-06T09:55:38.452Z,5.77
2022-10-06T09:58:34.183Z,4.90
2022-10-06T10:01:03.936Z,5.23
2022-10-06T10:04:15.660Z,7.80
2022-10-06T10:06:38.933Z,6.57
2022-10-06T10:09:22.106Z,5.67
2022-10-06T10:12:30.738Z,5.03
2022-10-06T10:15:03.530Z,6.00
2022-10-06T10:17:31.748Z,6.23
2022-10-06T10:20:00.889Z,5.30
2022-10-06T10:22:35.549Z,5.83
2022-10-06T10:25:26.555Z,5.83
2022-10-06T10:27:58.998Z,5.67
2022-10-06T10:30:28.148Z,5.63
2022-10-06T10:33:00.837Z,5.50
2022-10-06T10:35:46.369Z,7.60
2022-10-06T10:38:19.931Z,5.30
2022-10-06T10:40:53.711Z,4.90
2022-10-06T10:43:43.787Z,5.13
2022-10-06T10:46:32.183Z,4.60
2022-10-06T10:49:23.306Z,5.30
2022-10-06T10:51:58.648Z,5.03
2022-10-06T10:54:34.585Z,4.63
2022-10-06T10:57:01.232Z,4.87
2022-10-06T10:59:35.923Z,4.17
2022-10-06T11:02:22.744Z,5.00
2022-10-06T11:04:53.518Z,5.77
2022-10-06T11:07:29.335Z,4.70
2022-10-06T11:10:20.941Z,4.63
2022-10-06T11:13:06.741Z,5.10
2022-10-06T11:15:32.951Z,4.17
2022-10-06T11:18:21.381Z,4.20
2022-10-06T11:21:21.444Z,4.60
2022-10-06T11:24:05.527Z,4.03
2022-10-06T11:26:44.951Z,4.50
2022-10-06T11:29:33.113Z,4.20
2022-10-06T11:32:20.823Z,4.47
2022-10-06T11:34:51.435Z,4.43
2022-10-06T11:37:44.361Z,3.93
2022-10-06T11:40:14.131Z,4.20
2022-10-06T11:42:52.023Z,5.00
2022-10-06T11:45:27.638Z,3.90
2022-10-06T11:48:29.919Z,4.67
2022-10-06T11:51:17.509Z,4.33
2022-10-06T11:53:44.903Z,4.10
2022-10-06T11:56:17.181Z,3.90
2022-10-06T11:58:55.755Z,5.50
2022-10-06T12:01:45.309Z,4.27
2022-10-06T12:04:15.509Z,4.80
2022-10-06T12:06:41.760Z,4.13
2022-10-06T12:09:32.500Z,3.87
2022-10-06T12:12:19.058Z,4.73
2022-10-06T12:17:08.705Z,4.30
2022-10-06T12:18:30.492Z,3.90
2022-10-06T12:21:24.063Z,4.60
2022-10-06T12:23:56.569Z,3.70
2022-10-06T12:26:36.465Z,4.23
2022-10-06T12:29:28.223Z,4.03
2022-10-06T12:32:13.426Z,4.20
2022-10-06T12:34:39.700Z,3.53
2022-10-06T12:37:36.984Z,3.30
2022-10-06T12:41:01.650Z,3.60
2022-10-06T12:43:28.014Z,4.10
2022-10-06T12:46:16.322Z,5.70
2022-10-06T12:49:14.263Z,4.27
2022-10-06T12:51:46.739Z,4.07
2022-10-06T12:54:35.365Z,4.00
2022-10-06T12:57:20.024Z,3.80
2022-10-06T12:59:47.523Z,4.40
2022-10-06T13:02:22.089Z,4.03
2022-10-06T13:04:53.200Z,3.93
2022-10-06T13:07:22.873Z,4.30
2022-10-06T13:09:53.360Z,3.70
2022-10-06T13:12:26.268Z,4.00
2022-10-06T13:15:14.542Z,3.83
2022-10-06T13:17:48.783Z,3.60
2022-10-06T13:20:21.263Z,3.83
2022-10-06T13:22:55.683Z,3.30
2022-10-06T13:25:22.092Z,3.70
2022-10-06T13:27:50.744Z,3.10
2022-10-06T13:30:19.751Z,3.70
2022-10-06T13:32:46.184Z,3.87
2022-10-06T13:35:12.650Z,3.60
2022-10-06T13:37:39.420Z,3.90
2022-10-06T13:40:45.699Z,3.93
2022-10-06T13:43:18.171Z,3.90
2022-10-06T13:45:48.161Z,3.57
2022-10-06T13:48:18.776Z,3.60
2022-10-06T13:50:49.457Z,4.07
2022-10-06T13:53:31.330Z,3.60
2022-10-06T13:55:58.762Z,3.50
2022-10-06T13:58:27.729Z,3.80
2022-10-06T14:01:00.843Z,3.50
2022-10-06T14:06:05.367Z,3.73
2022-10-06T14:08:32.292Z,3.20
2022-10-06T14:11:02.025Z,3.37
2022-10-06T14:13:32.037Z,3.27
2022-10-06T14:16:04.155Z,3.37
2022-10-06T14:18:46.638Z,3.67
2022-10-06T14:21:19.411Z,3.93
2022-10-06T14:23:53.441Z,3.70
2022-10-06T14:26:26.318Z,2.83
2022-10-06T14:28:53.759Z,3.87
2022-10-06T14:31:22.026Z,4.00
2022-10-06T14:33:52.137Z,3.10
2022-10-06T14:36:21.782Z,3.83
2022-10-06T14:38:49.670Z,3.40
2022-10-06T14:41:19.291Z,3.80
2022-10-06T14:43:47.714Z,3.27
2022-10-06T14:46:15.346Z,3.30
2022-10-06T14:48:41.777Z,3.40
2022-10-06T14:51:09.373Z,3.33
2022-10-06T14:53:37.242Z,4.17
2022-10-06T14:56:06.043Z,3.37
2022-10-06T14:58:39.733Z,3.27
2022-10-06T15:01:07.446Z,3.53
2022-10-06T15:03:36.888Z,3.50
2022-10-06T15:06:24.363Z,4.03
2022-10-06T15:08:58.745Z,3.40
2022-10-06T15:11:27.873Z,3.43
2022-10-06T15:13:55.463Z,4.10
2022-10-06T15:16:24.369Z,3.17
2022-10-06T15:18:51.733Z,3.33
2022-10-06T15:21:18.962Z,3.70
2022-10-06T15:23:45.663Z,4.03
2022-10-06T15:26:30.728Z,3.70
2022-10-06T15:29:03.192Z,3.40
2022-10-06T15:31:41.886Z,4.47
2022-10-06T15:34:10.838Z,4.53
2022-10-06T15:36:39.007Z,3.33
2022-10-06T15:39:10.915Z,4.27
2022-10-06T15:41:38.721Z,3.70
2022-10-06T15:44:06.432Z,3.33
2022-10-06T15:46:41.410Z,3.50
2022-10-06T15:49:12.957Z,3.73
2022-10-06T15:51:48.726Z,4.40
2022-10-06T15:54:19.313Z,3.50
2022-10-06T15:56:53.522Z,3.67
2022-10-06T15:59:24.149Z,3.60
2022-10-06T16:01:55.574Z,3.57
2022-10-06T16:04:30.602Z,3.40
2022-10-06T16:06:57.349Z,3.53
2022-10-06T16:09:26.029Z,4.50
2022-10-06T16:11:53.417Z,4.53
2022-10-06T16:14:19.780Z,3.33
2022-10-06T16:16:47.170Z,3.63
2022-10-06T16:19:14.770Z,3.13
2022-10-06T16:21:41.950Z,4.10
2022-10-06T16:24:08.842Z,2.93
2022-10-06T16:26:35.396Z,3.97
2022-10-06T16:29:02.188Z,3.80
2022-10-06T16:31:28.602Z,5.20
2022-10-06T16:33:54.904Z,5.80
2022-10-06T16:36:21.693Z,5.10
2022-10-06T16:38:52.760Z,4.70
2022-10-06T16:41:20.333Z,4.00
2022-10-06T16:43:49.942Z,4.27
2022-10-06T16:46:19.104Z,7.50
2022-10-06T16:48:46.670Z,5.67
2022-10-06T16:51:21.732Z,4.80
2022-10-06T16:53:52.584Z,5.00
2022-10-06T16:56:27.779Z,4.67
2022-10-06T16:58:56.465Z,4.43
2022-10-06T17:01:28.414Z,8.33
2022-10-06T17:04:12.278Z,6.47
2022-10-06T17:06:44.646Z,4.83
2022-10-06T17:09:15.612Z,14.60
2022-10-06T17:11:44.453Z,10.37
2022-10-06T17:14:11.748Z,7.70
2022-10-06T17:16:40.682Z,9.00
2022-10-06T17:19:07.318Z,6.50
2022-10-06T17:21:54.118Z,7.87
2022-10-06T17:24:20.961Z,5.50
2022-10-06T17:26:48.729Z,4.93
2022-10-06T17:29:21.291Z,4.70
2022-10-06T17:31:50.270Z,5.50
2022-10-06T17:34:21.534Z,5.50
2022-10-06T17:36:51.238Z,5.47
2022-10-06T17:39:20.033Z,5.47
2022-10-06T17:41:47.824Z,5.80
2022-10-06T17:44:22.805Z,5.03
2022-10-06T17:46:52.703Z,5.40
2022-10-06T17:49:21.019Z,5.13
2022-10-06T17:51:47.894Z,5.23
2022-10-06T17:54:20.005Z,5.60
2022-10-06T17:56:48.676Z,5.87
2022-10-06T17:59:30.047Z,5.20
2022-10-06T18:01:59.701Z,5.27
2022-10-06T18:04:26.909Z,6.43
2022-10-06T18:06:54.372Z,6.90
2022-10-06T18:09:21.853Z,6.20
2022-10-06T18:11:48.567Z,5.10
2022-10-06T18:14:16.591Z,4.83
2022-10-06T18:17:00.497Z,6.40
2022-10-06T18:19:33.062Z,6.13
2022-10-06T18:22:09.804Z,5.33
2022-10-06T18:24:36.485Z,5.00
2022-10-06T18:27:04.941Z,5.03
2022-10-06T18:29:33.529Z,4.70
2022-10-06T18:32:35.991Z,5.77
2022-10-06T18:37:33.229Z,6.20
2022-10-06T18:40:01.404Z,5.73
2022-10-06T18:42:27.970Z,5.87
2022-10-06T18:45:12.925Z,5.27
2022-10-06T18:47:57.705Z,5.40
2022-10-06T18:50:24.012Z,4.87
2022-10-06T18:52:50.474Z,5.17
2022-10-06T18:55:17.069Z,5.57
2022-10-06T18:57:44.936Z,6.03
2022-10-06T19:00:12.120Z,5.60
2022-10-06T19:02:38.417Z,5.77
2022-10-06T19:05:05.132Z,5.00
2022-10-06T19:07:31.579Z,4.73
2022-10-06T19:09:57.933Z,4.73
2022-10-06T19:12:24.372Z,6.57
2022-10-06T19:14:51.176Z,8.73
2022-10-06T19:17:17.627Z,8.90
2022-10-06T19:19:45.748Z,6.40
2022-10-06T19:22:14.175Z,5.70
2022-10-06T19:24:43.467Z,5.77
2022-10-06T19:27:20.439Z,6.33
2022-10-06T19:29:53.965Z,5.40
2022-10-06T19:32:23.965Z,5.20
2022-10-06T19:34:50.397Z,6.43
2022-10-06T19:37:16.946Z,4.47
2022-10-06T19:39:46.798Z,5.73
2022-10-06T19:42:34.807Z,7.23
2022-10-06T19:45:01.244Z,5.43
2022-10-06T19:47:27.696Z,5.20
2022-10-06T19:49:58.365Z,5.40
2022-10-06T19:52:27.275Z,6.50
2022-10-06T19:54:53.622Z,5.80
2022-10-06T19:57:19.930Z,5.70
2022-10-06T19:59:46.226Z,5.70
2022-10-06T20:02:12.582Z,6.30
2022-10-06T20:04:39.812Z,5.60
2022-10-06T20:07:09.019Z,6.00
2022-10-06T20:09:35.629Z,6.20
2022-10-06T20:12:02.080Z,7.67
2022-10-06T20:14:28.867Z,5.77
2022-10-06T20:16:56.436Z,6.60
2022-10-06T20:19:25.216Z,5.93
2022-10-06T20:21:51.656Z,6.80
2022-10-06T20:24:22.386Z,6.97
2022-10-06T20:26:50.342Z,7.97
2022-10-06T20:29:28.238Z,6.87
2022-10-06T20:31:56.596Z,6.90
2022-10-06T20:34:25.731Z,7.40
2022-10-06T20:36:55.865Z,7.40
2022-10-06T20:39:43.091Z,6.60
2022-10-06T20:42:14.941Z,6.97
2022-10-06T20:44:42.568Z,6.80
2022-10-06T20:47:10.149Z,10.40
2022-10-06T20:49:36.590Z,6.97
2022-10-06T20:52:04.356Z,6.00
2022-10-06T20:54:34.449Z,5.67
2022-10-06T20:57:02.990Z,6.07
2022-10-06T20:59:29.866Z,6.13
2022-10-06T21:01:59.133Z,6.60
2022-10-06T21:04:27.213Z,6.13
2022-10-06T21:06:53.526Z,6.90
2022-10-06T21:09:20.113Z,6.43
2022-10-06T21:11:47.475Z,5.43
2022-10-06T21:14:14.230Z,5.43
2022-10-06T21:16:43.142Z,6.90
2022-10-06T21:19:13.423Z,6.10
2022-10-06T21:21:40.303Z,6.33
2022-10-06T21:24:08.234Z,6.07
2022-10-06T21:26:35.355Z,6.33
2022-10-06T21:29:01.726Z,6.00
2022-10-06T21:31:28.267Z,5.23
2022-10-06T21:33:54.951Z,5.70
2022-10-06T21:36:23.327Z,5.90
2022-10-06T21:38:55.691Z,5.47
2022-10-06T21:41:37.546Z,5.50
2022-10-06T21:44:08.015Z,5.53
2022-10-06T21:46:55.311Z,6.13
2022-10-06T21:49:23.702Z,5.67
2022-10-06T21:51:53.410Z,5.00
2022-10-06T21:54:20.852Z,6.07
2022-10-06T21:56:47.471Z,6.30
2022-10-06T21:59:14.611Z,5.70
2022-10-06T22:01:43.137Z,5.80
2022-10-06T22:04:12.503Z,6.40
2022-10-06T22:06:38.766Z,5.90
2022-10-06T22:09:07.292Z,5.97
2022-10-06T22:11:36.435Z,6.03
2022-10-06T22:14:04.655Z,6.10
2022-10-06T22:16:33.242Z,5.80
2022-10-06T22:19:00.966Z,6.03
2022-10-06T22:21:29.758Z,5.80
2022-10-06T22:23:57.524Z,5.57
2022-10-06T22:26:24.959Z,5.10
2022-10-06T22:28:53.160Z,5.50
2022-10-06T22:31:25.602Z,5.50
2022-10-06T22:33:55.298Z,5.10
2022-10-06T22:36:22.259Z,5.93
2022-10-06T22:38:48.715Z,6.20
2022-10-06T22:41:15.331Z,6.00
2022-10-06T22:43:42.019Z,5.13
2022-10-06T22:46:09.794Z,6.30
2022-10-06T22:48:36.478Z,6.63
2022-10-06T22:51:03.490Z,6.00
2022-10-06T22:53:32.615Z,5.90
2022-10-06T22:56:00.111Z,6.43
2022-10-06T22:58:27.470Z,5.87
2022-10-06T23:00:54.366Z,5.70
2022-10-06T23:03:21.167Z,5.53
2022-10-06T23:05:58.778Z,5.30
2022-10-06T23:08:25.374Z,5.47
2022-10-06T23:10:52.511Z,5.17
2022-10-06T23:13:19.336Z,6.13
2022-10-06T23:15:46.136Z,4.40
2022-10-06T23:18:12.838Z,5.67
2022-10-06T23:20:39.732Z,5.13
2022-10-06T23:23:06.234Z,4.80
2022-10-06T23:25:36.687Z,5.27
2022-10-06T23:28:03.403Z,5.10
2022-10-06T23:30:29.715Z,4.70
2022-10-06T23:32:55.990Z,5.13
2022-10-06T23:35:22.252Z,5.20
2022-10-06T23:37:48.607Z,4.90
2022-10-06T23:40:14.939Z,4.73
2022-10-06T23:42:41.223Z,4.73
2022-10-06T23:45:08.559Z,5.10
2022-10-06T23:47:34.871Z,4.67
2022-10-06T23:50:01.222Z,6.00
2022-10-06T23:52:27.682Z,5.20
2022-10-06T23:54:54.075Z,5.20
2022-10-06T23:57:20.385Z,4.57
2022-10-06T23:59:46.664Z,5.10
